67°F
Crown Heights Area, Poughkeepsie, NY, USA
UpdatedJul-28-2017 06:53 
 

Nearby METAR Reports

 

KPOU - Poughkeepsie, New York, USA
Distance from station: ENE 2mi, 4km
Updated: Fri, 28-Jul-2017 6:24am EDT
Fog, Overcast
Fog, Overcast
 Wind from calm
Wind: Calm
Temperature: 66°F , 19°C
Dew Point: 64°F , 18°C
Humidity: 94%
Barometer: 29.87 inHg , 1011.5 hPa
Summary: Fog
Clouds: Overcast
Visibility: 1/4 mile , 2 km
Cloud details: Overcast 200 ft
2017/07/28 10:24 KPOU 281024Z AUTO 00000KT 1/4SM FG OVC002 19/18 A2987 RMK AO2 T01940183
KSWF - Newburgh/Stewart, New York, USA
Distance from station: SW 12mi, 19km
Updated: Fri, 28-Jul-2017 6:25am EDT

 Wind from calm
Wind: Calm
Visibility: 1/2 mile , 2 km
2017/07/28 10:25 KSWF 281025Z 00000KT 1/2SM RY9/4000FT FG OVC002 20/20 A2990
 
KMGJ - Montgomery, New York, USA
Distance from station: WSW 19mi, 31km
Updated: Fri, 28-Jul-2017 6:37am EDT
Fog, Overcast
Fog, Overcast
 Wind from calm
Wind: Calm
Temperature: 66°F , 19°C
Dew Point: 66°F , 19°C
Humidity: 100%
Barometer: 29.88 inHg , 1011.9 hPa
Summary: Fog
Clouds: Overcast
Visibility: 1/4 mile , 2 km
Cloud details: Overcast 400 ft
2017/07/28 10:37 KMGJ 281037Z AUTO 00000KT 1/4SM FG VV004 19/19 A2988 RMK AO2 T01940194 TSNO
KDXR - Danbury, Connecticut, USA
Distance from station: SE 29mi, 46km
Updated: Fri, 28-Jul-2017 6:41am EDT
Mist, Overcast
Mist, Overcast
 Wind from calm
Wind: Calm
Temperature: 68°F , 20°C
Dew Point: 66°F , 19°C
Humidity: 94%
Barometer: 29.89 inHg , 1012.2 hPa
Summary: Mist
Clouds: Overcast
Visibility: 1 mile , 2 km
Cloud details: Overcast 400 ft
2017/07/28 10:41 KDXR 281041Z AUTO 00000KT 1SM BR VV004 20/19 A2989 RMK AO2 T02000194
 
KHPN - White Plains, New York, USA
Distance from station: SSE 40mi, 64km
Updated: Fri, 28-Jul-2017 6:13am EDT
Mist, Few clouds
Mist, Few clouds
 Wind from calm
Wind: Calm
Temperature: 66°F , 19°C
Dew Point: 64°F , 18°C
Humidity: 94%
Barometer: 29.87 inHg , 1011.5 hPa
Summary: Mist
Clouds: Few Clouds
Visibility: 1 1/4 miles , 2 km
Cloud details: Few Clouds 4000 ft
2017/07/28 10:13 KHPN 281013Z 00000KT 1 1/4SM BR FEW040 19/18 A2987 RMK AO2 T01890178 $
KOXC - Oxford/Waterbury, Connecticut, USA
Distance from station: ESE 42mi, 68km
Updated: Fri, 28-Jul-2017 6:16am EDT
Mist, Patches of, Fog, Partly cloudy
Mist, Patches of, Fog, Partly cloudy
 Wind from calm
Wind: Calm
Temperature: 66°F , 19°C
Dew Point: 63°F , 17°C
Humidity: 88%
Barometer: 29.89 inHg , 1012.2 hPa
Summary: Mist, Patches of, Fog
Clouds: Partly cloudy
Visibility: 2 miles , 3 km
Cloud details: Partly cloudy 11000 ft
2017/07/28 10:16 KOXC 281016Z 00000KT 2SM BR BCFG SCT110 19/17 A2989
 
KMSV - Monticello, New York, USA
Distance from station: W 45mi, 72km
Updated: Fri, 14-Jul-2017 3:55pm EDT
NOT Current
Mist, Overcast
Mist, Overcast
 Wind from S
Wind: S 6 mph , 9 km/h
Temperature: 70°F , 21°C
Dew Point: 68°F , 20°C
Humidity: 94%
Barometer: 30.02 inHg , 1016.6 hPa
Summary: Mist
Clouds: Overcast
Visibility: 6 miles , 10 km
Cloud details: Overcast 500 ft
2017/07/14 19:55 KMSV 141955Z 18005KT 6SM BR OVC005 21/20 A3002 RMK VSBY S 1
KFWN - Sussex, New Jersey, USA
Distance from station: SW 47mi, 75km
Updated: Fri, 28-Jul-2017 5:53am EDT
Fog, Overcast
Fog, Overcast
 Wind from calm
Wind: Calm
Temperature: 66°F , 19°C
Dew Point: 66°F , 19°C
Humidity: 100%
Barometer: 29.88 inHg , 1011.9 hPa
Summary: Fog
Clouds: Overcast
Visibility: 1/4 mile , 2 km
Cloud details: Overcast 200 ft
2017/07/28 09:53 KFWN 280953Z AUTO 00000KT 1/4SM FG VV002 19/19 A2988 RMK AO2 SLP115 T01890189